createdAt,value
2022-11-14T00:01:41.350Z,8.53
2022-11-14T00:04:29.784Z,8.60
2022-11-14T00:07:17.855Z,9.40
2022-11-14T00:10:05.607Z,8.20
2022-11-14T00:12:53.347Z,8.80
2022-11-14T00:15:40.733Z,8.90
2022-11-14T00:18:28.816Z,7.93
2022-11-14T00:21:16.304Z,8.03
2022-11-14T00:24:04.099Z,8.17
2022-11-14T00:26:51.838Z,8.40
2022-11-14T00:29:39.127Z,7.30
2022-11-14T00:32:26.859Z,7.17
2022-11-14T00:35:14.188Z,7.10
2022-11-14T00:38:01.942Z,7.60
2022-11-14T00:40:49.702Z,7.27
2022-11-14T00:43:37.567Z,7.27
2022-11-14T00:46:25.317Z,7.57
2022-11-14T00:49:13.075Z,6.70
2022-11-14T00:52:00.851Z,6.73
2022-11-14T00:54:48.172Z,7.77
2022-11-14T00:57:35.970Z,7.27
2022-11-14T01:00:23.423Z,6.87
2022-11-14T01:03:11.197Z,6.97
2022-11-14T01:05:59.039Z,6.80
2022-11-14T01:08:46.632Z,6.23
2022-11-14T01:11:34.526Z,6.47
2022-11-14T01:14:21.795Z,7.23
2022-11-14T01:17:09.576Z,7.40
2022-11-14T01:19:56.869Z,7.17
2022-11-14T01:22:44.758Z,7.27
2022-11-14T01:25:34.219Z,7.07
2022-11-14T01:28:22.042Z,6.70
2022-11-14T01:31:20.613Z,7.37
2022-11-14T01:34:08.360Z,7.13
2022-11-14T01:36:56.155Z,7.17
2022-11-14T01:39:43.466Z,6.83
2022-11-14T01:42:30.660Z,6.97
2022-11-14T01:45:37.392Z,6.93
2022-11-14T01:48:37.730Z,5.73
2022-11-14T01:51:25.622Z,6.90
2022-11-14T01:54:24.706Z,6.30
2022-11-14T01:57:13.576Z,6.33
2022-11-14T02:00:03.204Z,7.40
2022-11-14T02:02:51.170Z,6.23
2022-11-14T02:05:38.451Z,6.90
2022-11-14T02:08:26.558Z,6.87
2022-11-14T02:11:14.591Z,6.27
2022-11-14T02:14:02.517Z,7.10
2022-11-14T02:17:07.585Z,6.53
2022-11-14T02:20:05.038Z,6.63
2022-11-14T02:22:52.811Z,6.50
2022-11-14T02:25:40.916Z,6.93
2022-11-14T02:28:29.231Z,6.87
2022-11-14T02:31:16.812Z,6.60
2022-11-14T02:34:04.594Z,6.80
2022-11-14T02:36:52.355Z,7.43
2022-11-14T02:39:40.352Z,7.27
2022-11-14T02:42:28.079Z,7.07
2022-11-14T02:45:16.032Z,7.33
2022-11-14T02:48:03.431Z,7.20
2022-11-14T02:50:51.203Z,6.90
2022-11-14T02:53:38.478Z,7.30
2022-11-14T02:56:26.292Z,8.13
2022-11-14T02:59:13.603Z,8.10
2022-11-14T03:02:01.412Z,7.10
2022-11-14T03:04:48.904Z,6.97
2022-11-14T03:07:36.360Z,7.10
2022-11-14T03:10:24.216Z,7.40
2022-11-14T03:13:12.094Z,6.83
2022-11-14T03:16:05.717Z,7.00
2022-11-14T03:18:53.097Z,7.23
2022-11-14T03:21:40.842Z,6.23
2022-11-14T03:24:28.054Z,6.87
2022-11-14T03:27:15.797Z,6.10
2022-11-14T03:30:03.334Z,5.70
2022-11-14T03:32:51.067Z,6.27
2022-11-14T03:35:42.462Z,6.37
2022-11-14T03:38:30.483Z,6.77
2022-11-14T03:41:18.630Z,6.50
2022-11-14T03:44:06.441Z,6.80
2022-11-14T03:46:54.205Z,6.93
2022-11-14T03:49:42.096Z,6.17
2022-11-14T03:52:29.396Z,5.93
2022-11-14T03:55:17.304Z,6.60
2022-11-14T03:58:05.083Z,5.33
2022-11-14T04:00:53.574Z,6.07
2022-11-14T04:03:41.031Z,6.07
2022-11-14T04:06:28.813Z,6.80
2022-11-14T04:09:16.118Z,7.00
2022-11-14T04:12:03.920Z,7.67
2022-11-14T04:14:51.273Z,6.57
2022-11-14T04:17:40.130Z,6.27
2022-11-14T04:20:28.090Z,6.57
2022-11-14T04:23:15.353Z,6.23
2022-11-14T04:26:03.174Z,6.60
2022-11-14T04:28:50.967Z,6.30
2022-11-14T04:31:38.218Z,6.23
2022-11-14T04:34:26.000Z,6.33
2022-11-14T04:37:13.355Z,6.00
2022-11-14T04:40:03.077Z,6.27
2022-11-14T04:42:50.855Z,6.43
2022-11-14T04:45:38.613Z,6.63
2022-11-14T04:48:26.321Z,6.63
2022-11-14T04:51:14.243Z,6.30
2022-11-14T04:54:02.079Z,6.90
2022-11-14T04:56:49.425Z,6.73
2022-11-14T04:59:37.200Z,6.97
2022-11-14T05:02:24.746Z,7.20
2022-11-14T05:05:12.494Z,6.20
2022-11-14T05:08:00.313Z,6.57
2022-11-14T05:10:47.794Z,5.77
2022-11-14T05:13:36.570Z,5.50
2022-11-14T05:16:24.324Z,5.80
2022-11-14T05:19:11.614Z,5.27
2022-11-14T05:21:59.363Z,5.33
2022-11-14T05:24:47.099Z,5.57
2022-11-14T05:27:34.398Z,5.97
2022-11-14T05:30:22.273Z,5.97
2022-11-14T05:33:09.661Z,4.93
2022-11-14T05:35:57.459Z,4.90
2022-11-14T05:38:44.943Z,5.47
2022-11-14T05:41:32.920Z,5.43
2022-11-14T05:44:20.117Z,5.90
2022-11-14T05:47:07.885Z,6.20
2022-11-14T05:49:55.202Z,5.33
2022-11-14T05:52:43.008Z,5.23
2022-11-14T05:55:30.405Z,4.63
2022-11-14T05:58:18.337Z,4.67
2022-11-14T06:01:13.814Z,4.80
2022-11-14T06:04:01.743Z,4.87
2022-11-14T06:06:49.614Z,4.50
2022-11-14T06:09:37.418Z,5.03
2022-11-14T06:12:24.810Z,4.47
2022-11-14T06:15:12.601Z,4.73
2022-11-14T06:17:59.999Z,4.30
2022-11-14T06:20:47.830Z,4.77
2022-11-14T06:23:35.221Z,4.40
2022-11-14T06:26:24.264Z,4.97
2022-11-14T06:29:11.646Z,4.60
2022-11-14T06:31:59.487Z,4.80
2022-11-14T06:34:47.283Z,5.43
2022-11-14T06:37:36.532Z,4.87
2022-11-14T06:40:24.445Z,4.40
2022-11-14T06:43:11.702Z,4.73
2022-11-14T06:45:59.431Z,4.77
2022-11-14T06:48:47.712Z,4.57
2022-11-14T06:51:35.557Z,4.37
2022-11-14T06:54:22.920Z,5.10
2022-11-14T06:57:13.897Z,4.30
2022-11-14T07:00:01.761Z,5.83
2022-11-14T07:02:49.649Z,4.10
2022-11-14T07:05:38.158Z,4.17
2022-11-14T07:08:26.269Z,3.47
2022-11-14T07:11:23.094Z,3.73
2022-11-14T07:14:21.365Z,3.30
2022-11-14T07:17:12.211Z,3.80
2022-11-14T07:19:59.512Z,3.73
2022-11-14T07:22:47.770Z,3.90
2022-11-14T07:25:35.789Z,3.73
2022-11-14T07:28:23.046Z,3.57
2022-11-14T07:31:13.094Z,3.80
2022-11-14T07:34:00.484Z,3.70
2022-11-14T07:36:48.255Z,3.70
2022-11-14T07:39:36.032Z,3.77
2022-11-14T07:42:23.462Z,3.40
2022-11-14T07:45:10.963Z,3.33
2022-11-14T07:47:59.609Z,3.23
2022-11-14T07:50:47.646Z,3.20
2022-11-14T07:53:35.027Z,3.80
2022-11-14T07:56:22.457Z,3.90
2022-11-14T07:59:10.396Z,3.50
2022-11-14T08:01:57.807Z,3.20
2022-11-14T08:04:45.210Z,3.50
2022-11-14T08:07:33.463Z,3.77
2022-11-14T08:10:21.564Z,3.07
2022-11-14T08:13:32.240Z,3.13
2022-11-14T08:16:20.716Z,2.90
2022-11-14T08:19:08.683Z,2.90
2022-11-14T08:21:56.139Z,2.87
2022-11-14T08:24:44.043Z,3.20
2022-11-14T08:27:31.446Z,3.23
2022-11-14T08:30:19.406Z,2.57
2022-11-14T08:33:07.339Z,3.13
2022-11-14T08:35:55.232Z,2.90
2022-11-14T08:38:43.157Z,3.40
2022-11-14T08:41:31.260Z,3.23
2022-11-14T08:44:18.701Z,3.20
2022-11-14T08:47:06.616Z,3.27
2022-11-14T08:49:54.031Z,3.13
2022-11-14T08:52:41.476Z,2.83
2022-11-14T08:55:28.912Z,2.73
2022-11-14T08:58:16.999Z,3.03
2022-11-14T09:01:05.462Z,3.13
2022-11-14T09:03:58.415Z,3.45
2022-11-14T09:06:47.182Z,3.53
2022-11-14T09:09:35.157Z,3.47
2022-11-14T09:12:22.566Z,3.28
2022-11-14T09:15:10.519Z,3.30
2022-11-14T09:17:59.133Z,3.88
2022-11-14T09:20:46.526Z,3.45
2022-11-14T09:23:34.303Z,3.65
2022-11-14T09:26:22.213Z,3.10
2022-11-14T09:29:09.634Z,3.40
2022-11-14T09:31:57.751Z,4.28
2022-11-14T09:34:45.666Z,3.60
2022-11-14T09:37:33.568Z,3.45
2022-11-14T09:40:21.520Z,3.60
2022-11-14T09:43:28.113Z,3.80
2022-11-14T09:46:23.842Z,3.60
2022-11-14T09:49:20.849Z,4.53
2022-11-14T09:52:27.473Z,4.18
2022-11-14T09:55:18.288Z,4.20
2022-11-14T09:58:06.569Z,3.97
2022-11-14T10:01:09.280Z,4.22
2022-11-14T10:04:09.708Z,4.50
2022-11-14T10:07:03.134Z,4.40
2022-11-14T10:10:02.934Z,3.78
2022-11-14T10:13:01.727Z,4.32
2022-11-14T10:15:52.676Z,4.05
2022-11-14T10:18:40.575Z,3.88
2022-11-14T10:21:47.322Z,5.35
2022-11-14T10:24:46.764Z,5.75
2022-11-14T10:27:36.844Z,4.95
2022-11-14T10:30:24.281Z,5.30
2022-11-14T10:33:22.702Z,5.88
2022-11-14T10:36:18.442Z,5.90
2022-11-14T10:39:20.496Z,5.80
2022-11-14T10:42:13.305Z,6.22
2022-11-14T10:45:24.608Z,6.47
2022-11-14T10:48:35.927Z,7.07
2022-11-14T10:51:27.687Z,7.10
2022-11-14T10:54:33.935Z,6.95
2022-11-14T10:57:22.778Z,6.82
2022-11-14T11:00:14.022Z,7.05
2022-11-14T11:03:01.780Z,6.60
2022-11-14T11:06:03.526Z,5.97
2022-11-14T11:09:09.843Z,6.50
2022-11-14T11:11:59.241Z,7.00
2022-11-14T11:14:47.814Z,7.28
2022-11-14T11:17:41.777Z,6.63
2022-11-14T11:20:32.344Z,6.93
2022-11-14T11:23:22.670Z,7.43
2022-11-14T11:26:36.291Z,5.88
2022-11-14T11:29:24.239Z,7.45
2022-11-14T11:32:11.801Z,6.90
2022-11-14T11:35:01.454Z,6.30
2022-11-14T11:37:55.439Z,6.22
2022-11-14T11:40:44.647Z,5.57
2022-11-14T11:43:39.820Z,5.70
2022-11-14T11:46:28.113Z,6.22
2022-11-14T11:49:18.344Z,6.13
2022-11-14T11:52:10.742Z,6.30
2022-11-14T11:55:02.101Z,4.35
2022-11-14T11:57:54.791Z,4.53
2022-11-14T12:00:42.786Z,6.25
2022-11-14T12:03:30.858Z,5.75
2022-11-14T12:06:25.160Z,5.70
2022-11-14T12:10:03.537Z,5.63
2022-11-14T12:12:44.877Z,5.53
2022-11-14T12:15:51.186Z,5.60
2022-11-14T12:18:44.707Z,4.72
2022-11-14T12:21:55.702Z,5.03
2022-11-14T12:24:58.404Z,4.90
2022-11-14T12:27:52.460Z,4.80
2022-11-14T12:30:40.988Z,4.30
2022-11-14T12:33:39.174Z,4.40
2022-11-14T12:36:32.163Z,3.60
2022-11-14T12:39:25.211Z,3.70
2022-11-14T12:42:17.609Z,3.65
2022-11-14T12:45:05.572Z,3.50
2022-11-14T12:48:12.102Z,3.60
2022-11-14T12:51:00.598Z,4.03
2022-11-14T12:53:48.562Z,4.10
2022-11-14T12:56:36.027Z,3.78
2022-11-14T12:59:23.489Z,3.78
2022-11-14T13:02:26.665Z,3.78
2022-11-14T13:05:14.569Z,3.97
2022-11-14T13:08:10.720Z,3.85
2022-11-14T13:10:58.667Z,4.03
2022-11-14T13:14:20.654Z,4.13
2022-11-14T13:17:32.786Z,4.15
2022-11-14T13:20:47.449Z,3.58
2022-11-14T13:23:44.632Z,4.97
2022-11-14T13:26:32.065Z,3.70
2022-11-14T13:29:38.347Z,4.18
2022-11-14T13:32:46.595Z,4.18
2022-11-14T13:35:46.768Z,3.40
2022-11-14T13:38:46.534Z,4.32
2022-11-14T13:41:48.124Z,4.72
2022-11-14T13:44:44.053Z,4.60
2022-11-14T13:47:50.458Z,4.18
2022-11-14T13:50:39.358Z,4.07
2022-11-14T13:53:29.281Z,4.57
2022-11-14T13:56:35.706Z,4.15
2022-11-14T13:59:41.397Z,3.97
2022-11-14T14:02:48.050Z,4.63
2022-11-14T14:05:43.013Z,3.83
2022-11-14T14:08:38.596Z,3.90
2022-11-14T14:11:46.873Z,3.88
2022-11-14T14:14:58.105Z,4.18
2022-11-14T14:17:51.829Z,3.72
2022-11-14T14:20:42.598Z,3.63
2022-11-14T14:23:48.603Z,4.72
2022-11-14T14:26:56.192Z,4.35
2022-11-14T14:29:54.000Z,3.50
2022-11-14T14:32:41.475Z,3.67
2022-11-14T14:35:33.459Z,3.65
2022-11-14T14:38:24.895Z,3.60
2022-11-14T14:41:14.771Z,3.45
2022-11-14T14:44:02.462Z,3.20
2022-11-14T14:46:50.602Z,4.28
2022-11-14T14:49:38.942Z,4.20
2022-11-14T14:52:31.087Z,3.95
2022-11-14T14:55:21.287Z,3.80
2022-11-14T14:58:21.972Z,4.18
2022-11-14T15:01:12.580Z,4.47
2022-11-14T15:04:05.043Z,3.63
2022-11-14T15:06:53.367Z,4.20
2022-11-14T15:09:52.165Z,4.10
2022-11-14T15:12:40.780Z,4.60
2022-11-14T15:15:28.601Z,3.90
2022-11-14T15:18:21.135Z,4.63
2022-11-14T15:21:09.761Z,5.05
2022-11-14T15:24:01.155Z,4.28
2022-11-14T15:26:50.607Z,4.63
2022-11-14T15:29:45.585Z,5.47
2022-11-14T15:32:34.163Z,4.63
2022-11-14T15:35:25.078Z,4.90
2022-11-14T15:38:43.504Z,5.37
2022-11-14T15:41:22.740Z,5.83
2022-11-14T15:44:28.940Z,5.43
2022-11-14T15:47:29.793Z,4.43
2022-11-14T15:50:17.168Z,5.03
2022-11-14T15:53:06.668Z,6.93
2022-11-14T15:55:54.258Z,6.03
2022-11-14T15:58:46.697Z,6.43
2022-11-14T16:01:37.196Z,6.30
2022-11-14T16:04:27.022Z,6.77
2022-11-14T16:07:15.530Z,6.47
2022-11-14T16:10:03.204Z,5.47
2022-11-14T16:12:52.870Z,5.37
2022-11-14T16:15:40.364Z,4.77
2022-11-14T16:18:28.066Z,5.43
2022-11-14T16:21:17.084Z,5.30
2022-11-14T16:24:05.341Z,5.43
2022-11-14T16:26:52.766Z,5.33
2022-11-14T16:29:40.561Z,5.63
2022-11-14T16:32:28.301Z,4.87
2022-11-14T16:35:20.437Z,5.00
2022-11-14T16:38:07.780Z,5.13
2022-11-14T16:40:56.584Z,4.57
2022-11-14T16:43:44.466Z,4.70
2022-11-14T16:46:31.775Z,5.70
2022-11-14T16:49:20.558Z,6.10
2022-11-14T16:52:11.272Z,5.60
2022-11-14T16:54:58.582Z,5.20
2022-11-14T16:57:45.860Z,5.10
2022-11-14T17:00:34.012Z,5.20
2022-11-14T17:03:21.941Z,5.90
2022-11-14T17:06:12.388Z,5.60
2022-11-14T17:09:00.418Z,5.73
2022-11-14T17:11:47.733Z,6.07
2022-11-14T17:14:35.139Z,5.43
2022-11-14T17:17:22.448Z,5.30
2022-11-14T17:20:10.834Z,5.27
2022-11-14T17:22:58.237Z,5.07
2022-11-14T17:25:46.204Z,4.97
2022-11-14T17:28:38.903Z,5.00
2022-11-14T17:31:31.504Z,4.73
2022-11-14T17:34:27.148Z,4.93
2022-11-14T17:37:14.953Z,4.83
2022-11-14T17:40:02.219Z,4.73
2022-11-14T17:42:50.073Z,4.87
2022-11-14T17:45:41.055Z,5.13
2022-11-14T17:48:33.478Z,5.57
2022-11-14T17:51:21.044Z,5.63
2022-11-14T17:54:09.400Z,6.23
2022-11-14T17:56:58.149Z,5.27
2022-11-14T17:59:46.267Z,5.33
2022-11-14T18:02:34.286Z,4.80
2022-11-14T18:05:22.136Z,5.57
2022-11-14T18:08:12.468Z,5.47
2022-11-14T18:11:03.454Z,6.73
2022-11-14T18:13:54.986Z,6.40
2022-11-14T18:17:10.537Z,6.20
2022-11-14T18:19:49.773Z,5.43
2022-11-14T18:22:37.648Z,6.47
2022-11-14T18:25:25.026Z,7.30
2022-11-14T18:28:12.913Z,7.17
2022-11-14T18:31:03.769Z,7.27
2022-11-14T18:33:51.880Z,7.80
2022-11-14T18:36:39.163Z,8.00
2022-11-14T18:39:29.671Z,6.83
2022-11-14T18:42:17.269Z,5.70
2022-11-14T18:45:05.229Z,5.60
2022-11-14T18:47:52.474Z,5.43
2022-11-14T18:50:40.109Z,6.17
2022-11-14T18:53:30.977Z,7.07
2022-11-14T18:56:20.381Z,6.13
2022-11-14T18:59:08.356Z,7.40
2022-11-14T19:01:55.742Z,7.33
2022-11-14T19:04:43.702Z,7.03
2022-11-14T19:07:31.089Z,7.00
2022-11-14T19:10:18.872Z,7.20
2022-11-14T19:13:06.657Z,8.10
2022-11-14T19:15:54.039Z,7.47
2022-11-14T19:18:41.528Z,7.37
2022-11-14T19:21:29.497Z,7.20
2022-11-14T19:24:17.062Z,7.50
2022-11-14T19:27:04.529Z,7.73
2022-11-14T19:29:51.890Z,7.13
2022-11-14T19:32:39.745Z,7.67
2022-11-14T19:35:27.673Z,7.50
2022-11-14T19:38:15.495Z,7.57
2022-11-14T19:41:22.749Z,8.17
2022-11-14T19:44:10.614Z,8.30
2022-11-14T19:46:57.879Z,8.30
2022-11-14T19:49:45.183Z,8.37
2022-11-14T19:52:32.462Z,9.03
2022-11-14T19:55:20.718Z,8.03
2022-11-14T19:58:08.013Z,8.63
2022-11-14T20:01:02.451Z,11.53
2022-11-14T20:03:57.379Z,11.90
2022-11-14T20:06:44.901Z,9.10
2022-11-14T20:09:32.361Z,10.23
2022-11-14T20:12:21.959Z,10.57
2022-11-14T20:15:10.109Z,9.50
2022-11-14T20:17:57.917Z,9.93
2022-11-14T20:20:45.750Z,8.33
2022-11-14T20:23:34.520Z,6.93
2022-11-14T20:26:22.268Z,7.03
2022-11-14T20:29:10.090Z,7.23
2022-11-14T20:31:57.819Z,6.53
2022-11-14T20:34:45.167Z,8.03
2022-11-14T20:37:32.456Z,7.47
2022-11-14T20:40:20.270Z,6.97
2022-11-14T20:43:08.069Z,7.30
2022-11-14T20:45:56.388Z,7.43
2022-11-14T20:48:45.773Z,7.70
2022-11-14T20:51:33.638Z,8.43
2022-11-14T20:54:20.950Z,8.37
2022-11-14T20:57:08.968Z,8.83
2022-11-14T20:59:56.456Z,9.30
2022-11-14T21:02:44.412Z,7.40
2022-11-14T21:05:31.902Z,7.93
2022-11-14T21:08:19.953Z,7.47
2022-11-14T21:11:08.757Z,7.23
2022-11-14T21:13:56.251Z,7.07
2022-11-14T21:16:44.232Z,7.43
2022-11-14T21:19:31.832Z,7.33
2022-11-14T21:22:19.168Z,7.63
2022-11-14T21:25:06.649Z,7.50
2022-11-14T21:27:54.511Z,8.37
2022-11-14T21:30:41.771Z,7.90
2022-11-14T21:33:30.720Z,8.13
2022-11-14T21:39:27.268Z,8.43
2022-11-14T21:42:18.476Z,7.23
2022-11-14T21:45:07.776Z,7.87
2022-11-14T21:47:55.082Z,6.93
2022-11-14T21:50:42.871Z,7.97
2022-11-14T21:53:32.924Z,6.73
2022-11-14T21:56:25.458Z,7.30
2022-11-14T21:59:15.145Z,6.33
2022-11-14T22:02:23.297Z,6.13
2022-11-14T22:05:10.587Z,5.83
2022-11-14T22:07:58.451Z,5.13
2022-11-14T22:10:45.772Z,5.30
2022-11-14T22:13:33.941Z,4.83
2022-11-14T22:16:21.822Z,5.20
2022-11-14T22:19:09.862Z,5.00
2022-11-14T22:21:58.051Z,4.83
2022-11-14T22:24:45.891Z,4.77
2022-11-14T22:27:33.240Z,5.70
2022-11-14T22:30:21.077Z,5.87
2022-11-14T22:33:08.362Z,5.63
2022-11-14T22:35:56.237Z,5.30
2022-11-14T22:38:45.206Z,5.83
2022-11-14T22:41:33.844Z,5.70
2022-11-14T22:44:21.885Z,5.33
2022-11-14T22:47:09.682Z,4.87
2022-11-14T22:49:57.019Z,4.17
2022-11-14T22:52:44.436Z,5.00
2022-11-14T22:55:32.272Z,4.20
2022-11-14T22:58:20.053Z,4.23
2022-11-14T23:01:15.110Z,4.97
2022-11-14T23:04:04.311Z,5.70
2022-11-14T23:06:52.369Z,4.97
2022-11-14T23:09:40.282Z,4.83
2022-11-14T23:12:28.211Z,4.70
2022-11-14T23:15:16.166Z,3.93
2022-11-14T23:18:04.397Z,4.13
2022-11-14T23:20:51.746Z,4.43
2022-11-14T23:23:39.297Z,5.40
2022-11-14T23:26:28.525Z,5.17
2022-11-14T23:29:18.981Z,5.30
2022-11-14T23:32:06.487Z,4.70
2022-11-14T23:34:53.784Z,5.73
2022-11-14T23:37:41.774Z,5.43
2022-11-14T23:40:29.667Z,4.93
2022-11-14T23:43:17.492Z,4.67
2022-11-14T23:46:05.328Z,4.63
2022-11-14T23:48:53.801Z,5.53
2022-11-14T23:51:41.074Z,5.23
2022-11-14T23:54:28.881Z,5.30
2022-11-14T23:57:16.741Z,5.53
